sensor_id;sensor_type;location;lat;lon;timestamp;P1;durP1;ratioP1;P2;durP2;ratioP2
18217;SDS011;9234;49.344;11.120;2023-03-23T00:02:24;5.07;;;3.30;;
18217;SDS011;9234;49.344;11.120;2023-03-23T00:04:52;9.67;;;3.43;;
18217;SDS011;9234;49.344;11.120;2023-03-23T00:07:22;6.07;;;3.60;;
18217;SDS011;9234;49.344;11.120;2023-03-23T00:09:52;5.33;;;3.23;;
18217;SDS011;9234;49.344;11.120;2023-03-23T00:12:21;7.47;;;4.30;;
18217;SDS011;9234;49.344;11.120;2023-03-23T00:14:54;4.67;;;3.00;;
18217;SDS011;9234;49.344;11.120;2023-03-23T00:17:21;6.00;;;3.40;;
18217;SDS011;9234;49.344;11.120;2023-03-23T00:19:48;6.67;;;3.40;;
18217;SDS011;9234;49.344;11.120;2023-03-23T00:22:17;5.70;;;3.13;;
18217;SDS011;9234;49.344;11.120;2023-03-23T00:24:47;5.40;;;3.27;;
18217;SDS011;9234;49.344;11.120;2023-03-23T00:27:16;4.60;;;3.10;;
18217;SDS011;9234;49.344;11.120;2023-03-23T00:29:43;5.43;;;3.07;;
18217;SDS011;9234;49.344;11.120;2023-03-23T00:32:12;4.00;;;3.03;;
18217;SDS011;9234;49.344;11.120;2023-03-23T00:34:41;5.10;;;3.50;;
18217;SDS011;9234;49.344;11.120;2023-03-23T00:37:11;4.73;;;2.80;;
18217;SDS011;9234;49.344;11.120;2023-03-23T00:39:41;7.00;;;3.30;;
18217;SDS011;9234;49.344;11.120;2023-03-23T00:42:12;3.60;;;2.90;;
18217;SDS011;9234;49.344;11.120;2023-03-23T00:44:42;4.40;;;2.85;;
18217;SDS011;9234;49.344;11.120;2023-03-23T00:47:10;4.47;;;3.30;;
18217;SDS011;9234;49.344;11.120;2023-03-23T00:49:38;5.80;;;3.30;;
18217;SDS011;9234;49.344;11.120;2023-03-23T00:52:06;6.50;;;3.00;;
18217;SDS011;9234;49.344;11.120;2023-03-23T00:54:33;4.77;;;3.43;;
18217;SDS011;9234;49.344;11.120;2023-03-23T00:57:03;3.37;;;2.67;;
18217;SDS011;9234;49.344;11.120;2023-03-23T00:59:33;4.57;;;2.80;;
18217;SDS011;9234;49.344;11.120;2023-03-23T01:02:00;4.27;;;2.97;;
18217;SDS011;9234;49.344;11.120;2023-03-23T01:04:27;4.73;;;3.13;;
18217;SDS011;9234;49.344;11.120;2023-03-23T01:06:56;4.27;;;2.50;;
18217;SDS011;9234;49.344;11.120;2023-03-23T01:09:25;3.97;;;2.93;;
18217;SDS011;9234;49.344;11.120;2023-03-23T01:11:53;3.53;;;2.33;;
18217;SDS011;9234;49.344;11.120;2023-03-23T01:14:22;6.28;;;2.65;;
18217;SDS011;9234;49.344;11.120;2023-03-23T01:16:51;2.93;;;2.37;;
18217;SDS011;9234;49.344;11.120;2023-03-23T01:19:19;3.10;;;2.37;;
18217;SDS011;9234;49.344;11.120;2023-03-23T01:21:46;2.70;;;2.10;;
18217;SDS011;9234;49.344;11.120;2023-03-23T01:24:13;2.95;;;2.10;;
18217;SDS011;9234;49.344;11.120;2023-03-23T01:26:40;5.70;;;2.23;;
18217;SDS011;9234;49.344;11.120;2023-03-23T01:29:07;4.93;;;2.77;;
18217;SDS011;9234;49.344;11.120;2023-03-23T01:31:35;2.57;;;1.77;;
18217;SDS011;9234;49.344;11.120;2023-03-23T01:34:06;2.23;;;1.90;;
18217;SDS011;9234;49.344;11.120;2023-03-23T01:36:33;2.87;;;2.03;;
18217;SDS011;9234;49.344;11.120;2023-03-23T01:39:03;2.50;;;2.05;;
18217;SDS011;9234;49.344;11.120;2023-03-23T01:41:32;4.32;;;2.40;;
18217;SDS011;9234;49.344;11.120;2023-03-23T01:44:06;2.57;;;1.97;;
18217;SDS011;9234;49.344;11.120;2023-03-23T01:47:02;3.20;;;1.97;;
18217;SDS011;9234;49.344;11.120;2023-03-23T01:49:35;3.97;;;1.90;;
18217;SDS011;9234;49.344;11.120;2023-03-23T01:52:09;3.40;;;2.40;;
18217;SDS011;9234;49.344;11.120;2023-03-23T01:54:43;2.60;;;2.13;;
18217;SDS011;9234;49.344;11.120;2023-03-23T01:57:14;3.40;;;1.70;;
18217;SDS011;9234;49.344;11.120;2023-03-23T01:59:45;3.42;;;1.77;;
18217;SDS011;9234;49.344;11.120;2023-03-23T02:02:20;5.80;;;1.90;;
18217;SDS011;9234;49.344;11.120;2023-03-23T02:04:54;3.38;;;1.95;;
18217;SDS011;9234;49.344;11.120;2023-03-23T02:07:30;3.63;;;2.35;;
18217;SDS011;9234;49.344;11.120;2023-03-23T02:10:01;4.97;;;2.33;;
18217;SDS011;9234;49.344;11.120;2023-03-23T02:12:31;4.10;;;2.25;;
18217;SDS011;9234;49.344;11.120;2023-03-23T02:15:00;3.45;;;1.88;;
18217;SDS011;9234;49.344;11.120;2023-03-23T02:17:31;2.42;;;1.70;;
18217;SDS011;9234;49.344;11.120;2023-03-23T02:20:22;2.55;;;1.50;;
18217;SDS011;9234;49.344;11.120;2023-03-23T02:23:19;3.80;;;1.60;;
18217;SDS011;9234;49.344;11.120;2023-03-23T02:26:19;2.05;;;1.70;;
18217;SDS011;9234;49.344;11.120;2023-03-23T02:29:06;3.25;;;1.50;;
18217;SDS011;9234;49.344;11.120;2023-03-23T02:35:14;3.00;;;1.75;;
18217;SDS011;9234;49.344;11.120;2023-03-23T02:37:47;3.57;;;1.70;;
18217;SDS011;9234;49.344;11.120;2023-03-23T02:40:21;1.70;;;1.53;;
18217;SDS011;9234;49.344;11.120;2023-03-23T02:42:54;1.83;;;1.70;;
18217;SDS011;9234;49.344;11.120;2023-03-23T02:45:24;3.55;;;1.92;;
18217;SDS011;9234;49.344;11.120;2023-03-23T02:47:56;2.53;;;1.63;;
18217;SDS011;9234;49.344;11.120;2023-03-23T02:50:29;2.23;;;1.40;;
18217;SDS011;9234;49.344;11.120;2023-03-23T02:53:02;1.70;;;1.25;;
18217;SDS011;9234;49.344;11.120;2023-03-23T02:55:33;2.22;;;1.85;;
18217;SDS011;9234;49.344;11.120;2023-03-23T02:58:12;2.45;;;1.73;;
18217;SDS011;9234;49.344;11.120;2023-03-23T03:00:41;2.30;;;1.50;;
18217;SDS011;9234;49.344;11.120;2023-03-23T03:03:10;2.35;;;1.73;;
18217;SDS011;9234;49.344;11.120;2023-03-23T03:05:47;2.08;;;1.60;;
18217;SDS011;9234;49.344;11.120;2023-03-23T03:08:26;3.95;;;1.73;;
18217;SDS011;9234;49.344;11.120;2023-03-23T03:11:07;2.13;;;1.70;;
18217;SDS011;9234;49.344;11.120;2023-03-23T03:13:41;3.40;;;1.58;;
18217;SDS011;9234;49.344;11.120;2023-03-23T03:16:20;3.80;;;1.50;;
18217;SDS011;9234;49.344;11.120;2023-03-23T03:18:54;2.58;;;1.45;;
18217;SDS011;9234;49.344;11.120;2023-03-23T03:21:30;2.33;;;1.40;;
18217;SDS011;9234;49.344;11.120;2023-03-23T03:24:03;2.20;;;1.38;;
18217;SDS011;9234;49.344;11.120;2023-03-23T03:26:36;2.40;;;1.42;;
18217;SDS011;9234;49.344;11.120;2023-03-23T03:29:28;2.60;;;1.42;;
18217;SDS011;9234;49.344;11.120;2023-03-23T03:32:01;1.52;;;1.13;;
18217;SDS011;9234;49.344;11.120;2023-03-23T03:34:33;3.47;;;1.45;;
18217;SDS011;9234;49.344;11.120;2023-03-23T03:37:04;3.78;;;1.50;;
18217;SDS011;9234;49.344;11.120;2023-03-23T03:39:34;2.22;;;1.20;;
18217;SDS011;9234;49.344;11.120;2023-03-23T03:42:03;2.80;;;1.23;;
18217;SDS011;9234;49.344;11.120;2023-03-23T03:44:31;2.08;;;1.13;;
18217;SDS011;9234;49.344;11.120;2023-03-23T03:46:59;3.20;;;1.67;;
18217;SDS011;9234;49.344;11.120;2023-03-23T03:49:27;2.00;;;1.55;;
18217;SDS011;9234;49.344;11.120;2023-03-23T03:51:54;1.27;;;1.00;;
18217;SDS011;9234;49.344;11.120;2023-03-23T03:54:35;2.65;;;1.27;;
18217;SDS011;9234;49.344;11.120;2023-03-23T03:57:02;1.38;;;1.20;;
18217;SDS011;9234;49.344;11.120;2023-03-23T04:00:02;3.13;;;1.23;;
18217;SDS011;9234;49.344;11.120;2023-03-23T04:02:43;1.73;;;1.20;;
18217;SDS011;9234;49.344;11.120;2023-03-23T04:05:21;1.45;;;1.00;;
18217;SDS011;9234;49.344;11.120;2023-03-23T04:07:49;2.67;;;1.08;;
18217;SDS011;9234;49.344;11.120;2023-03-23T04:10:20;1.67;;;1.30;;
18217;SDS011;9234;49.344;11.120;2023-03-23T04:12:52;2.30;;;1.35;;
18217;SDS011;9234;49.344;11.120;2023-03-23T04:15:38;3.08;;;1.33;;
18217;SDS011;9234;49.344;11.120;2023-03-23T04:18:05;1.65;;;1.23;;
18217;SDS011;9234;49.344;11.120;2023-03-23T04:20:34;1.83;;;1.23;;
18217;SDS011;9234;49.344;11.120;2023-03-23T04:23:03;1.80;;;1.10;;
18217;SDS011;9234;49.344;11.120;2023-03-23T04:25:33;1.80;;;1.50;;
18217;SDS011;9234;49.344;11.120;2023-03-23T04:28:02;1.90;;;1.20;;
18217;SDS011;9234;49.344;11.120;2023-03-23T04:30:37;1.83;;;1.30;;
18217;SDS011;9234;49.344;11.120;2023-03-23T04:33:10;2.28;;;1.35;;
18217;SDS011;9234;49.344;11.120;2023-03-23T04:35:41;2.58;;;1.40;;
18217;SDS011;9234;49.344;11.120;2023-03-23T04:38:21;1.85;;;1.20;;
18217;SDS011;9234;49.344;11.120;2023-03-23T04:40:57;2.22;;;2.00;;
18217;SDS011;9234;49.344;11.120;2023-03-23T04:43:47;3.63;;;2.67;;
18217;SDS011;9234;49.344;11.120;2023-03-23T04:46:26;2.65;;;2.03;;
18217;SDS011;9234;49.344;11.120;2023-03-23T04:48:57;3.92;;;2.15;;
18217;SDS011;9234;49.344;11.120;2023-03-23T04:51:29;4.15;;;2.58;;
18217;SDS011;9234;49.344;11.120;2023-03-23T04:54:10;2.90;;;2.70;;
18217;SDS011;9234;49.344;11.120;2023-03-23T04:56:41;2.40;;;2.20;;
18217;SDS011;9234;49.344;11.120;2023-03-23T04:59:12;2.00;;;1.83;;
18217;SDS011;9234;49.344;11.120;2023-03-23T05:02:05;1.70;;;1.40;;
18217;SDS011;9234;49.344;11.120;2023-03-23T05:04:34;2.47;;;1.95;;
18217;SDS011;9234;49.344;11.120;2023-03-23T05:07:12;2.97;;;1.42;;
18217;SDS011;9234;49.344;11.120;2023-03-23T05:09:46;4.28;;;1.73;;
18217;SDS011;9234;49.344;11.120;2023-03-23T05:12:17;2.25;;;2.05;;
18217;SDS011;9234;49.344;11.120;2023-03-23T05:14:53;1.50;;;1.27;;
18217;SDS011;9234;49.344;11.120;2023-03-23T05:17:23;2.72;;;1.90;;
18217;SDS011;9234;49.344;11.120;2023-03-23T05:19:55;1.90;;;1.48;;
18217;SDS011;9234;49.344;11.120;2023-03-23T05:22:38;3.35;;;1.77;;
18217;SDS011;9234;49.344;11.120;2023-03-23T05:25:07;2.00;;;1.50;;
18217;SDS011;9234;49.344;11.120;2023-03-23T05:27:40;2.20;;;1.60;;
18217;SDS011;9234;49.344;11.120;2023-03-23T05:30:20;2.35;;;1.30;;
18217;SDS011;9234;49.344;11.120;2023-03-23T05:32:48;2.30;;;1.38;;
18217;SDS011;9234;49.344;11.120;2023-03-23T05:35:25;2.78;;;1.63;;
18217;SDS011;9234;49.344;11.120;2023-03-23T05:37:53;2.65;;;1.60;;
18217;SDS011;9234;49.344;11.120;2023-03-23T05:40:21;2.40;;;1.58;;
18217;SDS011;9234;49.344;11.120;2023-03-23T05:43:12;3.55;;;1.83;;
18217;SDS011;9234;49.344;11.120;2023-03-23T05:45:48;2.47;;;1.50;;
18217;SDS011;9234;49.344;11.120;2023-03-23T05:48:16;2.90;;;1.50;;
18217;SDS011;9234;49.344;11.120;2023-03-23T05:50:43;2.45;;;1.38;;
18217;SDS011;9234;49.344;11.120;2023-03-23T05:53:10;3.53;;;1.70;;
18217;SDS011;9234;49.344;11.120;2023-03-23T05:55:39;1.95;;;1.40;;
18217;SDS011;9234;49.344;11.120;2023-03-23T05:58:28;2.40;;;1.45;;
18217;SDS011;9234;49.344;11.120;2023-03-23T06:00:57;6.70;;;2.20;;
18217;SDS011;9234;49.344;11.120;2023-03-23T06:03:27;2.33;;;1.60;;
18217;SDS011;9234;49.344;11.120;2023-03-23T06:06:15;4.25;;;1.90;;
18217;SDS011;9234;49.344;11.120;2023-03-23T06:08:51;2.42;;;1.73;;
18217;SDS011;9234;49.344;11.120;2023-03-23T06:11:28;3.00;;;2.05;;
18217;SDS011;9234;49.344;11.120;2023-03-23T06:14:17;3.30;;;2.28;;
18217;SDS011;9234;49.344;11.120;2023-03-23T06:16:44;15.18;;;3.10;;
18217;SDS011;9234;49.344;11.120;2023-03-23T06:19:13;3.03;;;2.00;;
18217;SDS011;9234;49.344;11.120;2023-03-23T06:21:50;4.68;;;2.50;;
18217;SDS011;9234;49.344;11.120;2023-03-23T06:24:52;3.25;;;2.40;;
18217;SDS011;9234;49.344;11.120;2023-03-23T06:27:27;3.30;;;2.35;;
18217;SDS011;9234;49.344;11.120;2023-03-23T06:29:58;2.88;;;2.45;;
18217;SDS011;9234;49.344;11.120;2023-03-23T06:32:25;4.38;;;2.40;;
18217;SDS011;9234;49.344;11.120;2023-03-23T06:34:56;4.50;;;2.60;;
18217;SDS011;9234;49.344;11.120;2023-03-23T06:37:52;3.85;;;2.33;;
18217;SDS011;9234;49.344;11.120;2023-03-23T06:40:30;4.35;;;2.28;;
18217;SDS011;9234;49.344;11.120;2023-03-23T06:42:57;4.70;;;2.78;;
18217;SDS011;9234;49.344;11.120;2023-03-23T06:45:29;3.83;;;2.03;;
18217;SDS011;9234;49.344;11.120;2023-03-23T06:48:22;2.88;;;2.45;;
18217;SDS011;9234;49.344;11.120;2023-03-23T06:50:49;4.47;;;2.38;;
18217;SDS011;9234;49.344;11.120;2023-03-23T06:53:19;4.68;;;2.78;;
18217;SDS011;9234;49.344;11.120;2023-03-23T06:55:48;2.70;;;2.35;;
18217;SDS011;9234;49.344;11.120;2023-03-23T06:58:16;2.90;;;2.55;;
18217;SDS011;9234;49.344;11.120;2023-03-23T07:00:45;6.40;;;2.83;;
18217;SDS011;9234;49.344;11.120;2023-03-23T07:03:15;3.40;;;2.55;;
18217;SDS011;9234;49.344;11.120;2023-03-23T07:05:45;4.70;;;2.88;;
18217;SDS011;9234;49.344;11.120;2023-03-23T07:08:14;3.00;;;2.53;;
18217;SDS011;9234;49.344;11.120;2023-03-23T07:10:46;2.65;;;2.13;;
18217;SDS011;9234;49.344;11.120;2023-03-23T07:13:15;3.60;;;2.35;;
18217;SDS011;9234;49.344;11.120;2023-03-23T07:15:50;3.03;;;2.20;;
18217;SDS011;9234;49.344;11.120;2023-03-23T07:18:18;2.83;;;2.40;;
18217;SDS011;9234;49.344;11.120;2023-03-23T07:20:47;4.25;;;2.45;;
18217;SDS011;9234;49.344;11.120;2023-03-23T07:23:16;4.72;;;2.75;;
18217;SDS011;9234;49.344;11.120;2023-03-23T07:25:55;4.63;;;2.53;;
18217;SDS011;9234;49.344;11.120;2023-03-23T07:28:29;3.92;;;2.50;;
18217;SDS011;9234;49.344;11.120;2023-03-23T07:31:04;4.82;;;2.63;;
18217;SDS011;9234;49.344;11.120;2023-03-23T07:33:32;3.53;;;2.88;;
18217;SDS011;9234;49.344;11.120;2023-03-23T07:36:01;5.00;;;3.33;;
18217;SDS011;9234;49.344;11.120;2023-03-23T07:38:29;2.95;;;2.35;;
18217;SDS011;9234;49.344;11.120;2023-03-23T07:40:57;2.53;;;2.33;;
18217;SDS011;9234;49.344;11.120;2023-03-23T07:43:25;3.53;;;2.95;;
18217;SDS011;9234;49.344;11.120;2023-03-23T07:46:12;4.10;;;2.85;;
18217;SDS011;9234;49.344;11.120;2023-03-23T07:49:01;5.00;;;3.50;;
18217;SDS011;9234;49.344;11.120;2023-03-23T07:51:36;5.35;;;3.17;;
18217;SDS011;9234;49.344;11.120;2023-03-23T07:54:05;2.83;;;2.30;;
18217;SDS011;9234;49.344;11.120;2023-03-23T07:56:56;3.15;;;2.63;;
18217;SDS011;9234;49.344;11.120;2023-03-23T07:59:26;5.15;;;2.88;;
18217;SDS011;9234;49.344;11.120;2023-03-23T08:01:57;4.43;;;3.28;;
18217;SDS011;9234;49.344;11.120;2023-03-23T08:04:33;3.33;;;2.47;;
18217;SDS011;9234;49.344;11.120;2023-03-23T08:07:20;5.72;;;3.05;;
18217;SDS011;9234;49.344;11.120;2023-03-23T08:09:59;6.38;;;3.17;;
18217;SDS011;9234;49.344;11.120;2023-03-23T08:12:45;6.80;;;3.10;;
18217;SDS011;9234;49.344;11.120;2023-03-23T08:15:30;6.68;;;3.00;;
18217;SDS011;9234;49.344;11.120;2023-03-23T08:18:22;2.78;;;2.40;;
18217;SDS011;9234;49.344;11.120;2023-03-23T08:21:04;4.20;;;2.42;;
18217;SDS011;9234;49.344;11.120;2023-03-23T08:23:52;4.10;;;2.80;;
18217;SDS011;9234;49.344;11.120;2023-03-23T08:26:38;2.95;;;2.70;;
18217;SDS011;9234;49.344;11.120;2023-03-23T08:29:25;2.28;;;2.08;;
18217;SDS011;9234;49.344;11.120;2023-03-23T08:32:13;4.90;;;2.70;;
18217;SDS011;9234;49.344;11.120;2023-03-23T08:34:53;2.85;;;2.42;;
18217;SDS011;9234;49.344;11.120;2023-03-23T08:37:49;3.17;;;2.20;;
18217;SDS011;9234;49.344;11.120;2023-03-23T08:40:43;6.32;;;3.13;;
18217;SDS011;9234;49.344;11.120;2023-03-23T08:43:11;4.28;;;2.63;;
18217;SDS011;9234;49.344;11.120;2023-03-23T08:46:07;6.22;;;3.03;;
18217;SDS011;9234;49.344;11.120;2023-03-23T08:49:06;11.80;;;3.42;;
18217;SDS011;9234;49.344;11.120;2023-03-23T08:51:56;3.45;;;2.40;;
18217;SDS011;9234;49.344;11.120;2023-03-23T08:54:43;3.95;;;2.58;;
18217;SDS011;9234;49.344;11.120;2023-03-23T08:57:47;3.30;;;2.65;;
18217;SDS011;9234;49.344;11.120;2023-03-23T09:00:49;2.90;;;2.42;;
18217;SDS011;9234;49.344;11.120;2023-03-23T09:03:37;3.53;;;2.55;;
18217;SDS011;9234;49.344;11.120;2023-03-23T09:06:23;3.03;;;2.50;;
18217;SDS011;9234;49.344;11.120;2023-03-23T09:08:53;2.50;;;2.30;;
18217;SDS011;9234;49.344;11.120;2023-03-23T09:11:21;2.85;;;2.55;;
18217;SDS011;9234;49.344;11.120;2023-03-23T09:13:48;2.92;;;2.30;;
18217;SDS011;9234;49.344;11.120;2023-03-23T09:16:16;2.85;;;2.10;;
18217;SDS011;9234;49.344;11.120;2023-03-23T09:18:43;2.50;;;2.30;;
18217;SDS011;9234;49.344;11.120;2023-03-23T09:21:11;2.97;;;2.10;;
18217;SDS011;9234;49.344;11.120;2023-03-23T09:23:38;6.03;;;2.58;;
18217;SDS011;9234;49.344;11.120;2023-03-23T09:26:10;4.10;;;2.25;;
18217;SDS011;9234;49.344;11.120;2023-03-23T09:28:37;4.95;;;2.38;;
18217;SDS011;9234;49.344;11.120;2023-03-23T09:31:05;3.33;;;2.72;;
18217;SDS011;9234;49.344;11.120;2023-03-23T09:33:32;4.75;;;2.80;;
18217;SDS011;9234;49.344;11.120;2023-03-23T09:36:00;3.00;;;2.67;;
18217;SDS011;9234;49.344;11.120;2023-03-23T09:38:30;3.90;;;2.42;;
18217;SDS011;9234;49.344;11.120;2023-03-23T09:41:00;3.33;;;2.30;;
18217;SDS011;9234;49.344;11.120;2023-03-23T09:43:53;2.42;;;2.17;;
18217;SDS011;9234;49.344;11.120;2023-03-23T09:46:36;2.28;;;2.03;;
18217;SDS011;9234;49.344;11.120;2023-03-23T09:49:21;4.30;;;2.60;;
18217;SDS011;9234;49.344;11.120;2023-03-23T09:51:54;4.75;;;2.63;;
18217;SDS011;9234;49.344;11.120;2023-03-23T09:54:26;2.70;;;2.33;;
18217;SDS011;9234;49.344;11.120;2023-03-23T09:56:57;4.65;;;2.33;;
18217;SDS011;9234;49.344;11.120;2023-03-23T09:59:29;3.55;;;2.30;;
18217;SDS011;9234;49.344;11.120;2023-03-23T10:02:04;3.25;;;1.90;;
18217;SDS011;9234;49.344;11.120;2023-03-23T10:04:43;2.65;;;2.33;;
18217;SDS011;9234;49.344;11.120;2023-03-23T10:07:14;3.60;;;2.38;;
18217;SDS011;9234;49.344;11.120;2023-03-23T10:09:47;4.97;;;2.30;;
18217;SDS011;9234;49.344;11.120;2023-03-23T10:12:22;3.15;;;2.25;;
18217;SDS011;9234;49.344;11.120;2023-03-23T10:15:13;3.70;;;2.42;;
18217;SDS011;9234;49.344;11.120;2023-03-23T10:17:45;3.95;;;2.20;;
18217;SDS011;9234;49.344;11.120;2023-03-23T10:20:28;2.20;;;2.00;;
18217;SDS011;9234;49.344;11.120;2023-03-23T10:23:23;5.47;;;1.90;;
18217;SDS011;9234;49.344;11.120;2023-03-23T10:26:24;4.45;;;2.38;;
18217;SDS011;9234;49.344;11.120;2023-03-23T10:29:08;2.30;;;1.75;;
18217;SDS011;9234;49.344;11.120;2023-03-23T10:31:44;2.88;;;1.77;;
18217;SDS011;9234;49.344;11.120;2023-03-23T10:34:17;1.83;;;1.50;;
18217;SDS011;9234;49.344;11.120;2023-03-23T10:36:53;3.38;;;2.42;;
18217;SDS011;9234;49.344;11.120;2023-03-23T10:39:30;3.15;;;1.88;;
18217;SDS011;9234;49.344;11.120;2023-03-23T10:42:09;3.63;;;2.53;;
18217;SDS011;9234;49.344;11.120;2023-03-23T10:44:37;3.35;;;1.75;;
18217;SDS011;9234;49.344;11.120;2023-03-23T10:47:06;4.97;;;1.65;;
18217;SDS011;9234;49.344;11.120;2023-03-23T10:49:37;1.73;;;1.33;;
18217;SDS011;9234;49.344;11.120;2023-03-23T10:52:13;3.05;;;1.35;;
18217;SDS011;9234;49.344;11.120;2023-03-23T10:54:56;2.10;;;1.50;;
18217;SDS011;9234;49.344;11.120;2023-03-23T10:57:29;1.67;;;1.30;;
18217;SDS011;9234;49.344;11.120;2023-03-23T11:00:00;2.47;;;1.15;;
18217;SDS011;9234;49.344;11.120;2023-03-23T11:02:38;2.03;;;1.25;;
18217;SDS011;9234;49.344;11.120;2023-03-23T11:05:15;1.33;;;1.05;;
18217;SDS011;9234;49.344;11.120;2023-03-23T11:07:50;2.17;;;0.98;;
18217;SDS011;9234;49.344;11.120;2023-03-23T11:10:22;0.82;;;0.82;;
18217;SDS011;9234;49.344;11.120;2023-03-23T11:12:52;1.50;;;0.90;;
18217;SDS011;9234;49.344;11.120;2023-03-23T11:15:27;5.25;;;1.40;;
18217;SDS011;9234;49.344;11.120;2023-03-23T11:18:01;2.25;;;1.05;;
18217;SDS011;9234;49.344;11.120;2023-03-23T11:20:34;1.58;;;1.02;;
18217;SDS011;9234;49.344;11.120;2023-03-23T11:23:09;2.15;;;1.10;;
18217;SDS011;9234;49.344;11.120;2023-03-23T11:25:51;1.52;;;0.93;;
18217;SDS011;9234;49.344;11.120;2023-03-23T11:28:26;2.08;;;1.10;;
18217;SDS011;9234;49.344;11.120;2023-03-23T11:30:59;2.83;;;1.27;;
18217;SDS011;9234;49.344;11.120;2023-03-23T11:33:36;1.38;;;1.08;;
18217;SDS011;9234;49.344;11.120;2023-03-23T11:36:13;3.78;;;1.35;;
18217;SDS011;9234;49.344;11.120;2023-03-23T11:38:42;1.38;;;1.05;;
18217;SDS011;9234;49.344;11.120;2023-03-23T11:41:11;1.45;;;1.35;;
18217;SDS011;9234;49.344;11.120;2023-03-23T11:43:44;2.25;;;1.10;;
18217;SDS011;9234;49.344;11.120;2023-03-23T11:46:17;1.63;;;1.15;;
18217;SDS011;9234;49.344;11.120;2023-03-23T11:49:10;1.67;;;1.55;;
18217;SDS011;9234;49.344;11.120;2023-03-23T11:51:49;2.22;;;1.20;;
18217;SDS011;9234;49.344;11.120;2023-03-23T11:54:24;2.88;;;1.27;;
18217;SDS011;9234;49.344;11.120;2023-03-23T11:56:58;1.15;;;1.02;;
18217;SDS011;9234;49.344;11.120;2023-03-23T11:59:29;1.80;;;1.30;;
18217;SDS011;9234;49.344;11.120;2023-03-23T12:02:04;1.83;;;1.40;;
18217;SDS011;9234;49.344;11.120;2023-03-23T12:05:02;1.95;;;0.90;;
18217;SDS011;9234;49.344;11.120;2023-03-23T12:08:07;2.90;;;1.20;;
18217;SDS011;9234;49.344;11.120;2023-03-23T12:10:52;1.45;;;1.35;;
18217;SDS011;9234;49.344;11.120;2023-03-23T12:13:31;1.83;;;1.20;;
18217;SDS011;9234;49.344;11.120;2023-03-23T12:16:28;1.83;;;1.33;;
18217;SDS011;9234;49.344;11.120;2023-03-23T12:19:16;4.00;;;1.40;;
18217;SDS011;9234;49.344;11.120;2023-03-23T12:22:02;1.42;;;1.05;;
18217;SDS011;9234;49.344;11.120;2023-03-23T12:24:46;2.05;;;1.17;;
18217;SDS011;9234;49.344;11.120;2023-03-23T12:27:28;1.45;;;0.90;;
18217;SDS011;9234;49.344;11.120;2023-03-23T12:30:12;1.17;;;1.08;;
18217;SDS011;9234;49.344;11.120;2023-03-23T12:32:56;3.80;;;1.13;;
18217;SDS011;9234;49.344;11.120;2023-03-23T12:35:44;2.10;;;0.85;;
18217;SDS011;9234;49.344;11.120;2023-03-23T12:38:38;2.28;;;1.20;;
18217;SDS011;9234;49.344;11.120;2023-03-23T12:41:58;1.35;;;1.25;;
18217;SDS011;9234;49.344;11.120;2023-03-23T12:44:39;1.77;;;1.10;;
18217;SDS011;9234;49.344;11.120;2023-03-23T12:47:19;2.47;;;1.15;;
18217;SDS011;9234;49.344;11.120;2023-03-23T12:49:59;1.58;;;1.30;;
18217;SDS011;9234;49.344;11.120;2023-03-23T12:52:38;1.27;;;1.02;;
18217;SDS011;9234;49.344;11.120;2023-03-23T12:55:19;2.65;;;1.42;;
18217;SDS011;9234;49.344;11.120;2023-03-23T12:57:59;1.27;;;1.00;;
18217;SDS011;9234;49.344;11.120;2023-03-23T13:00:33;2.70;;;1.42;;
18217;SDS011;9234;49.344;11.120;2023-03-23T13:03:20;2.17;;;1.48;;
18217;SDS011;9234;49.344;11.120;2023-03-23T13:05:58;2.00;;;1.23;;
18217;SDS011;9234;49.344;11.120;2023-03-23T13:08:47;3.10;;;1.38;;
18217;SDS011;9234;49.344;11.120;2023-03-23T13:11:24;1.50;;;1.25;;
18217;SDS011;9234;49.344;11.120;2023-03-23T13:14:01;1.73;;;1.33;;
18217;SDS011;9234;49.344;11.120;2023-03-23T13:16:44;2.63;;;1.38;;
18217;SDS011;9234;49.344;11.120;2023-03-23T13:19:23;2.28;;;1.40;;
18217;SDS011;9234;49.344;11.120;2023-03-23T13:22:01;1.40;;;1.17;;
18217;SDS011;9234;49.344;11.120;2023-03-23T13:24:36;1.75;;;1.25;;
18217;SDS011;9234;49.344;11.120;2023-03-23T13:27:22;1.25;;;0.95;;
18217;SDS011;9234;49.344;11.120;2023-03-23T13:29:53;2.47;;;1.30;;
18217;SDS011;9234;49.344;11.120;2023-03-23T13:32:32;2.70;;;1.15;;
18217;SDS011;9234;49.344;11.120;2023-03-23T13:35:02;1.67;;;1.58;;
18217;SDS011;9234;49.344;11.120;2023-03-23T13:37:40;2.22;;;1.20;;
18217;SDS011;9234;49.344;11.120;2023-03-23T13:40:18;2.15;;;1.00;;
18217;SDS011;9234;49.344;11.120;2023-03-23T13:42:55;1.40;;;1.10;;
18217;SDS011;9234;49.344;11.120;2023-03-23T13:45:35;2.88;;;1.00;;
18217;SDS011;9234;49.344;11.120;2023-03-23T13:48:18;1.90;;;1.20;;
18217;SDS011;9234;49.344;11.120;2023-03-23T13:50:52;1.73;;;0.95;;
18217;SDS011;9234;49.344;11.120;2023-03-23T13:53:24;1.15;;;0.98;;
18217;SDS011;9234;49.344;11.120;2023-03-23T13:56:13;1.30;;;1.10;;
18217;SDS011;9234;49.344;11.120;2023-03-23T13:58:47;3.28;;;1.10;;
18217;SDS011;9234;49.344;11.120;2023-03-23T14:01:17;1.30;;;1.20;;
18217;SDS011;9234;49.344;11.120;2023-03-23T14:03:59;2.40;;;1.00;;
18217;SDS011;9234;49.344;11.120;2023-03-23T14:06:33;1.48;;;1.23;;
18217;SDS011;9234;49.344;11.120;2023-03-23T14:09:06;1.33;;;1.17;;
18217;SDS011;9234;49.344;11.120;2023-03-23T14:11:48;1.70;;;1.20;;
18217;SDS011;9234;49.344;11.120;2023-03-23T14:14:26;1.85;;;1.08;;
18217;SDS011;9234;49.344;11.120;2023-03-23T14:17:05;1.92;;;1.40;;
18217;SDS011;9234;49.344;11.120;2023-03-23T14:19:37;1.55;;;1.08;;
18217;SDS011;9234;49.344;11.120;2023-03-23T14:22:16;1.90;;;1.23;;
18217;SDS011;9234;49.344;11.120;2023-03-23T14:24:46;1.90;;;1.00;;
18217;SDS011;9234;49.344;11.120;2023-03-23T14:27:14;2.53;;;1.50;;
18217;SDS011;9234;49.344;11.120;2023-03-23T14:29:47;1.88;;;1.67;;
18217;SDS011;9234;49.344;11.120;2023-03-23T14:32:25;3.13;;;1.50;;
18217;SDS011;9234;49.344;11.120;2023-03-23T14:34:57;1.60;;;1.30;;
18217;SDS011;9234;49.344;11.120;2023-03-23T14:37:31;2.50;;;1.60;;
18217;SDS011;9234;49.344;11.120;2023-03-23T14:40:00;1.88;;;1.67;;
18217;SDS011;9234;49.344;11.120;2023-03-23T14:42:32;1.60;;;1.33;;
18217;SDS011;9234;49.344;11.120;2023-03-23T14:45:03;2.92;;;1.45;;
18217;SDS011;9234;49.344;11.120;2023-03-23T14:47:34;2.22;;;1.65;;
18217;SDS011;9234;49.344;11.120;2023-03-23T14:50:05;2.05;;;1.45;;
18217;SDS011;9234;49.344;11.120;2023-03-23T14:52:49;1.58;;;1.20;;
18217;SDS011;9234;49.344;11.120;2023-03-23T14:55:17;2.70;;;1.50;;
18217;SDS011;9234;49.344;11.120;2023-03-23T14:57:47;2.65;;;1.70;;
18217;SDS011;9234;49.344;11.120;2023-03-23T15:00:20;1.83;;;1.30;;
18217;SDS011;9234;49.344;11.120;2023-03-23T15:02:51;2.63;;;1.30;;
18217;SDS011;9234;49.344;11.120;2023-03-23T15:05:24;2.38;;;1.77;;
18217;SDS011;9234;49.344;11.120;2023-03-23T15:07:59;2.05;;;1.88;;
18217;SDS011;9234;49.344;11.120;2023-03-23T15:10:30;3.00;;;1.80;;
18217;SDS011;9234;49.344;11.120;2023-03-23T15:12:58;1.90;;;1.60;;
18217;SDS011;9234;49.344;11.120;2023-03-23T15:15:28;2.22;;;1.65;;
18217;SDS011;9234;49.344;11.120;2023-03-23T15:17:59;3.80;;;1.55;;
18217;SDS011;9234;49.344;11.120;2023-03-23T15:20:29;3.75;;;1.83;;
18217;SDS011;9234;49.344;11.120;2023-03-23T15:23:13;3.13;;;1.45;;
18217;SDS011;9234;49.344;11.120;2023-03-23T15:25:47;1.73;;;1.50;;
18217;SDS011;9234;49.344;11.120;2023-03-23T15:28:18;2.72;;;1.60;;
18217;SDS011;9234;49.344;11.120;2023-03-23T15:30:50;3.20;;;1.60;;
18217;SDS011;9234;49.344;11.120;2023-03-23T15:33:20;2.80;;;1.55;;
18217;SDS011;9234;49.344;11.120;2023-03-23T15:35:52;2.75;;;1.60;;
18217;SDS011;9234;49.344;11.120;2023-03-23T15:38:22;3.40;;;1.73;;
18217;SDS011;9234;49.344;11.120;2023-03-23T15:40:52;1.70;;;1.40;;
18217;SDS011;9234;49.344;11.120;2023-03-23T15:43:22;3.33;;;1.58;;